• Join FlightAware (Why Join?)
  • Login
  • US Flag 
03:03PM EDT


 

Airport Tracker/Info


-or-


 

Live Flight TrackerFlight Track Log ✈ DAL268 ✈ 08-Sep-2013 ✈ KJFK - LLBG / TLV

Flight Track Log - Related Links

Times and Time Zones

All times are in EDT time to prevent confusion due to time zone crossing. See the DAL268 flight status page for this flight to view local times or setup timezone preferences in your user account.

Time Position Orientation Groundspeed Altitude Reporting Facility
EDT Latitude Longitude Course Direction KTS MPH feet Rate Location/Type
09:34PM 40.6290 -73.7810 37° Northeast 100 115  Level FlightAware
09:34PM 40.6420 -73.7700 33° Northeast 170 196 900 Level FlightAware
09:34PM 40.6530 -73.7610 32° Northeast 164 189 600 1,800 Climbing FlightAware
09:35PM 40.6650 -73.7500 35° Northeast 172 198 1,100 1,680 Climbing FlightAware
09:35PM 40.6690 -73.7430 53° Northeast 178 205 1,400 1,500 Climbing FlightAware
09:35PM 40.6720 -73.7340 66° East 189 217 1,500 900 Climbing FlightAware
09:35PM 40.6730 -73.7190 85° East 216 249 1,700 1,020 Climbing FlightAware
09:35PM 40.6700 -73.6880 97° East 239 275 2,100 960 Climbing FlightAware
09:36PM 40.6650 -73.6580 102° East 258 297 2,400 960 Climbing FlightAware
09:36PM 40.6610 -73.6330 102° East 271 312 2,700 1,320 Climbing FlightAware
09:36PM 40.6550 -73.6000 103° East 283 326 3,200 1,620 Climbing FlightAware
09:37PM 40.6500 -73.5670 101° East 290 334 3,800 2,100 Climbing FlightAware
09:37PM 40.6440 -73.5320 103° East 294 338 4,600 2,400 Climbing FlightAware
09:37PM 40.6370 -73.4870 102° East 299 344 5,600 2,160 Climbing FlightAware
09:38PM 40.6320 -73.4550 102° East 302 348 6,200 1,800 Climbing FlightAware
09:38PM 40.6270 -73.4220 101° East 308 354 6,800 1,860 Climbing FlightAware
09:39PM 40.6190 -73.3750 103° East 317 365 7,500 1,980 Climbing FlightAware
09:39PM 40.6120 -73.3370 104° East 323 372 8,200 1,980 Climbing FlightAware
09:39PM 40.6060 -73.3000 102° East 329 379 8,800 1,800 Climbing FlightAware
09:39PM 40.6020 -73.2720 101° East 331 381 9,200 1,800 Climbing FlightAware
09:40PM 40.5900 -73.1960 102° East 344 396 10,400 1,320 Climbing FlightAware
09:41PM 40.5770 -73.1180 102° East 375 432 10,900 840 Climbing FlightAware
09:41PM 40.5650 -73.0440 102° East 401 461 11,400 900 Climbing FlightAware
09:42PM 40.5710 -72.9650 84° East 420 483 11,900 1,320 Climbing FlightAware
09:42PM 40.5950 -72.8710 71° East 428 493 13,100 1,920 Climbing FlightAware
09:43PM 40.6140 -72.7990 71° East 435 501 14,200 2,280 Climbing FlightAware
09:43PM 40.6400 -72.7000 71° East 441 507 15,600 2,040 Climbing FlightAware
09:44PM 40.6610 -72.6160 72° East 449 517 16,600 1,920 Climbing FlightAware
09:45PM 40.6880 -72.5080 72° East 457 526 18,000 1,920 Climbing FlightAware
09:45PM 40.7080 -72.4290 72° East 462 532 18,900 1,740 Climbing FlightAware
09:46PM 40.7390 -72.3040 72° East 471 542 20,200 1,680 Climbing FlightAware
09:47PM 40.7660 -72.2000 71° East 480 552 21,200 1,560 Climbing FlightAware
09:47PM 40.7880 -72.1100 72° East 485 558 22,000 1,560 Climbing FlightAware
09:48PM 40.8140 -72.0050 72° East 490 564 23,000 1,440 Climbing FlightAware
09:48PM 40.8370 -71.9110 72° East 496 571 23,700 1,260 Climbing FlightAware
09:49PM 40.8760 -71.7950 66° East 497 572 24,600 1,200 Climbing FlightAware
09:50PM 40.9230 -71.7100 54° Northeast 491 565 25,300 1,140 Climbing FlightAware
09:50PM 40.9700 -71.6340 51° Northeast 495 570 26,000 1,140 Climbing FlightAware
09:51PM 41.0170 -71.5560 51° Northeast 499 574 26,600 1,080 Climbing FlightAware
09:51PM 41.0670 -71.4750 51° Northeast 506 582 27,200 1,080 Climbing FlightAware
09:52PM 41.1280 -71.3750 51° Northeast 511 588 27,900 1,200 Climbing FlightAware
09:53PM 41.1750 -71.2950 52° Northeast 507 583 28,700 1,440 Climbing FlightAware
09:53PM 41.2210 -71.2200 51° Northeast 504 580 29,500 1,560 Climbing FlightAware
09:54PM 41.2780 -71.1270 51° Northeast 499 574 30,500 1,200 Climbing FlightAware
09:54PM 41.3310 -71.0380 52° Northeast 497 572 31,000 360 Climbing FlightAware
09:55PM 41.3880 -70.9430 51° Northeast 495 570 31,000  Level FlightAware
09:56PM 41.4410 -70.8550 51° Northeast 493 567 31,000  Level FlightAware
09:56PM 41.4960 -70.7620 52° Northeast 492 566 31,000  Level FlightAware
09:57PM 41.5330 -70.7000 51° Northeast 492 566 31,000  Level FlightAware
09:57PM 41.5830 -70.6180 51° Northeast 492 566 31,000  Level FlightAware
09:58PM 41.6420 -70.5170 52° Northeast 492 566 31,000  Level FlightAware
09:59PM 41.6910 -70.4360 51° Northeast 492 566 31,000  Level FlightAware
09:59PM 41.7660 -70.3030 53° Northeast 486 559 31,000  Level FlightAware
10:00PM 41.8080 -70.2280 53° Northeast 486 559 31,000  Level FlightAware
10:01PM 41.8680 -70.1250 52° Northeast 484 557 31,000  Level FlightAware
10:02PM 41.9460 -69.9870 53° Northeast 483 556 31,000  Level FlightAware
10:02PM 42.0020 -69.8890 52° Northeast 483 556 31,000  Level FlightAware
10:03PM 42.0570 -69.7930 52° Northeast 482 555 31,000  Level FlightAware
10:03PM 42.0990 -69.7200 52° Northeast 488 562 31,000  Level FlightAware
10:04PM 42.1600 -69.6110 53° Northeast 484 557 31,000  Level FlightAware
10:05PM 42.2220 -69.4990 53° Northeast 484 557 31,000  Level FlightAware
10:06PM 42.2710 -69.4110 53° Northeast 485 558 31,000  Level FlightAware
10:06PM 42.3480 -69.2740 53° Northeast 490 564 31,000  Level FlightAware
10:07PM 42.3890 -69.1980 54° Northeast 487 560 31,000  Level FlightAware
10:08PM 42.4410 -69.1070 52° Northeast 489 563 31,000  Level FlightAware
10:08PM 42.4990 -69.0010 53° Northeast 489 563 31,000  Level FlightAware
10:09PM 42.5420 -68.9200 54° Northeast 489 563 31,000  Level FlightAware
10:10PM 42.6110 -68.7950 53° Northeast 489 563 31,000  Level FlightAware
10:10PM 42.6530 -68.7170 54° Northeast 489 563 31,000  Level FlightAware
10:15PM 43.0240 -68.0330 53° Northeast 474 545 31,000  Level FlightAware
10:16PM 43.0670 -67.9530 54° Northeast 474 545 31,000  Level FlightAware
10:17PM 43.2140 -67.6730 54° Northeast 479 551 31,000  Level FlightAware
10:18PM 43.2570 -67.5920 54° Northeast 477 549 31,000  Level FlightAware
10:19PM 43.3010 -67.5090 54° Northeast 474 545 31,000  Level FlightAware
10:19PM 43.3530 -67.4110 54° Northeast 473 544 31,000  Level FlightAware
10:20PM 43.3950 -67.3300 54° Northeast 476 548 31,000  Level FlightAware
10:20PM 43.4480 -67.2270 55° Northeast 475 547 31,000  Level FlightAware
10:21PM 43.4880 -67.1500 54° Northeast 478 550 31,000  Level FlightAware
10:21PM 43.5320 -67.0630 55° Northeast 475 547 31,000  Level FlightAware
10:22PM 43.5790 -66.9800 52° Northeast 472 543 31,000  Level FlightAware
10:23PM 43.6300 -66.8970 50° Northeast 474 545 31,000  Level FlightAware
10:23PM 43.6810 -66.8160 49° Northeast 478 550 31,000  Level FlightAware
10:24PM 43.7400 -66.7220 49° Northeast 481 554 31,000  Level FlightAware
10:24PM 43.7850 -66.6490 49° Northeast 488 562 31,000  Level FlightAware
10:25PM 43.8370 -66.5650 49° Northeast 485 558 31,000  Level FlightAware
10:26PM 43.8880 -66.4820 50° Northeast 492 566 31,000  Level FlightAware
10:26PM 43.9410 -66.3970 49° Northeast 496 571 31,000  Level FlightAware
10:27PM 44.0000 -66.3030 49° Northeast 500 575 31,000  Level FlightAware
10:27PM 44.0460 -66.2270 50° Northeast 498 573 31,000  Level FlightAware
10:28PM 44.0990 -66.1400 50° Northeast 502 578 31,000  Level FlightAware
10:29PM 44.1530 -66.0500 50° Northeast 505 581 31,000  Level FlightAware
10:29PM 44.2080 -65.9620 49° Northeast 507 583 31,000  Level FlightAware
10:30PM 44.2600 -65.8770 49° Northeast 508 585 31,000  Level FlightAware
10:30PM 44.3140 -65.7880 50° Northeast 509 586 31,000  Level FlightAware
10:31PM 44.3680 -65.6970 50° Northeast 510 587 31,000  Level FlightAware
10:31PM 44.4220 -65.6070 50° Northeast 518 596 31,000  Level FlightAware
10:32PM 44.4800 -65.5120 49° Northeast 522 601 31,000  Level FlightAware
10:33PM 44.5360 -65.4180 50° Northeast 526 605 31,000  Level FlightAware
10:33PM 44.5920 -65.3240 50° Northeast 528 608 31,000  Level FlightAware
10:34PM 44.6420 -65.2390 50° Northeast 533 613 31,000  Level FlightAware
10:34PM 44.6990 -65.1420 50° Northeast 539 620 31,000  Level FlightAware
10:35PM 44.7570 -65.0450 50° Northeast 544 626 31,000  Level FlightAware
10:36PM 44.8090 -64.9570 50° Northeast 547 629 31,000  Level FlightAware
10:36PM 44.8680 -64.8550 51° Northeast 549 632 31,000  Level FlightAware
10:37PM 44.9260 -64.7560 50° Northeast 549 632 31,000  Level FlightAware
10:37PM 44.9820 -64.6590 51° Northeast 548 631 31,000  Level FlightAware
10:38PM 45.0340 -64.5700 50° Northeast 549 632 31,000  Level FlightAware
10:38PM 45.0920 -64.4700 51° Northeast 549 632 31,000  Level FlightAware
10:39PM 45.1500 -64.3700 51° Northeast 548 631 31,000  Level FlightAware
10:40PM 45.2060 -64.2720 51° Northeast 548 631 31,000  Level FlightAware
10:40PM 45.2570 -64.1830 51° Northeast 550 633 31,000  Level FlightAware
10:41PM 45.3050 -64.0990 51° Northeast 550 633 31,000  Level FlightAware
10:42PM 45.3840 -63.9610 51° Northeast 549 632 31,000  Level FlightAware
10:42PM 45.4330 -63.8750 51° Northeast 549 632 31,000  Level FlightAware
10:43PM 45.4960 -63.7620 51° Northeast 759 873 31,000  Level FlightAware
10:46PM 45.8550 -63.1140 51° Northeast 553 636 31,000  Level FlightAware
10:47PM 45.9300 -62.9790 51° Northeast 553 636 31,000  Level FlightAware
10:48PM 45.9780 -62.8900 52° Northeast 553 636 31,000  Level FlightAware
10:49PM 46.0260 -62.8010 52° Northeast 553 636 31,000  Level FlightAware
10:49PM 46.0740 -62.7120 52° Northeast 553 636 31,000  Level FlightAware
10:50PM 46.1710 -62.5350 52° Northeast 555 639 31,000  Level FlightAware
10:50PM 46.2210 -62.4410 52° Northeast 555 639 31,000  Level FlightAware
10:51PM 46.2810 -62.3300 52° Northeast 556 640 31,000  Level FlightAware
10:52PM 46.3370 -62.2240 53° Northeast 558 642 31,000  Level FlightAware
10:52PM 46.3890 -62.1260 52° Northeast 561 646 31,000  Level FlightAware
10:53PM 46.4470 -62.0150 53° Northeast 562 647 31,000  Level FlightAware
10:53PM 46.4990 -61.9160 53° Northeast 564 649 31,000  Level FlightAware
10:54PM 46.5570 -61.8080 52° Northeast 564 649 31,000  Level FlightAware
10:54PM 46.6130 -61.6990 53° Northeast 565 650 31,000  Level FlightAware
10:55PM 46.6710 -61.5900 52° Northeast 566 651 31,000  Level FlightAware
10:56PM 46.7210 -61.4930 53° Northeast 568 654 31,000  Level FlightAware
10:56PM 46.7790 -61.3830 52° Northeast 568 654 31,000  Level FlightAware
10:57PM 46.8350 -61.2720 54° Northeast 570 656 31,000  Level FlightAware
10:57PM 46.8860 -61.1730 53° Northeast 572 658 31,000  Level FlightAware
10:58PM 46.9410 -61.0650 53° Northeast 574 661 31,000  Level FlightAware
10:59PM 47.0030 -60.9430 53° Northeast 575 662 31,000  Level FlightAware
10:59PM 47.0550 -60.8430 53° Northeast 575 662 31,000  Level FlightAware
11:00PM 47.1050 -60.7430 54° Northeast 579 666 31,000  Level FlightAware
11:00PM 47.1690 -60.6160 53° Northeast 580 667 31,000  Level FlightAware
11:01PM 47.2410 -60.4730 53° Northeast 582 670 31,000  Level FlightAware
11:02PM 47.3190 -60.3160 54° Northeast 585 673 31,000  Level FlightAware
11:02PM 47.3680 -60.2160 54° Northeast 586 674 31,000  Level FlightAware
11:03PM 47.4280 -60.0970 53° Northeast 586 674 31,000  Level FlightAware
11:04PM 47.4780 -59.9990 53° Northeast 586 674 31,000  Level FlightAware
11:04PM 47.5290 -59.8980 53° Northeast 586 674 31,000  Level FlightAware
11:05PM 47.5790 -59.8000 53° Northeast 586 674 31,000  Level FlightAware
11:06PM 47.6310 -59.6960 53° Northeast 586 674 31,000  Level FlightAware
11:06PM 47.6810 -59.5980 53° Northeast 586 674 31,000  Level FlightAware
11:07PM 47.7330 -59.4970 53° Northeast 586 674 31,000  Level FlightAware
11:07PM 47.7830 -59.3980 53° Northeast 586 674 31,000  Level FlightAware
11:08PM 47.8830 -59.1560 58° Northeast 584 672 31,000  Level FlightAware
11:08PM 47.9370 -59.0410 55° Northeast 584 672 31,000  Level FlightAware
11:09PM 47.9890 -58.9330 54° Northeast 585 673 31,000  Level FlightAware
11:10PM 48.0410 -58.8230 55° Northeast 584 672 31,000  Level FlightAware
11:10PM 48.1110 -58.6750 55° Northeast 583 671 31,000  Level FlightAware
11:11PM 48.1690 -58.5490 55° Northeast 581 669 31,000  Level FlightAware
11:11PM 48.2230 -58.4310 55° Northeast 580 667 31,000  Level FlightAware
11:12PM 48.2750 -58.3220 54° Northeast 578 665 31,000  Level FlightAware
11:13PM 48.3230 -58.2160 56° Northeast 575 662 31,000  Level FlightAware
11:13PM 48.3850 -58.0780 56° Northeast 574 661 31,000  Level FlightAware
11:14PM 48.4390 -57.9600 55° Northeast 571 657 31,000  Level FlightAware
11:15PM 48.4920 -57.8180 61° Northeast 566 651 31,000  Level FlightAware
11:15PM 48.5290 -57.7140 62° Northeast 566 651 31,000  Level FlightAware
11:16PM 48.5680 -57.6060 61° Northeast 567 652 31,000  Level FlightAware
11:16PM 48.6160 -57.4740 61° Northeast 570 656 31,000  Level FlightAware
11:17PM 48.6690 -57.3320 60° Northeast 570 656 31,000  Level FlightAware
11:17PM 48.7050 -57.2340 61° Northeast 570 656 31,000  Level FlightAware
11:18PM 48.7480 -57.1160 61° Northeast 569 655 31,000  Level FlightAware
11:19PM 48.7960 -56.9870 61° Northeast 568 654 31,000  Level FlightAware
11:19PM 48.8390 -56.8650 62° Northeast 568 654 31,000  Level FlightAware
11:20PM 48.8850 -56.7390 61° Northeast 569 655 31,000  Level FlightAware
11:20PM 48.9370 -56.5950 61° Northeast 573 659 31,000  Level FlightAware
11:21PM 48.9740 -56.4920 61° Northeast 572 658 31,000  Level FlightAware
11:21PM 49.0180 -56.3680 62° Northeast 570 656 31,000  Level FlightAware
11:22PM 49.0630 -56.2410 62° Northeast 571 657 31,000  Level FlightAware
11:23PM 49.1040 -56.1240 62° Northeast 572 658 31,000  Level FlightAware
11:23PM 49.1500 -55.9930 62° Northeast 571 657 31,000  Level FlightAware
11:24PM 49.1990 -55.8540 62° Northeast 571 657 31,000  Level FlightAware
11:24PM 49.2360 -55.7470 62° Northeast 570 656 31,000  Level FlightAware
11:25PM 49.2790 -55.6180 63° Northeast 572 658 31,000  Level FlightAware
11:26PM 49.3220 -55.4930 62° Northeast 573 659 31,000  Level FlightAware
11:26PM 49.3700 -55.3530 62° Northeast 572 658 31,000  Level FlightAware
11:27PM 49.4080 -55.2420 62° Northeast 569 655 31,000  Level FlightAware
11:27PM 49.4510 -55.1170 62° Northeast 567 652 31,000  Level FlightAware
11:28PM 49.4980 -54.9740 63° Northeast 566 651 31,000  Level FlightAware
11:28PM 49.5340 -54.8670 63° Northeast 565 650 31,000  Level FlightAware
11:29PM 49.5760 -54.7420 63° Northeast 563 648 31,000  Level FlightAware
11:30PM 49.6230 -54.5990 63° Northeast 563 648 31,000  Level FlightAware
11:30PM 49.6580 -54.4950 63° Northeast 562 647 31,000  Level FlightAware
11:31PM 49.6930 -54.3880 63° Northeast 561 646 31,000  Level FlightAware
11:31PM 49.7330 -54.2630 64° Northeast 560 644 31,000  Level FlightAware
11:32PM 49.7740 -54.1340 64° Northeast 562 647 31,000  Level FlightAware
11:32PM 49.8150 -54.0070 63° Northeast 569 655 31,000  Level FlightAware
11:33PM 49.8550 -53.8820 64° Northeast 574 661 31,000  Level FlightAware
11:34PM 49.8970 -53.7490 64° Northeast 576 663 31,000  Level FlightAware
11:34PM 49.9370 -53.6270 63° Northeast 575 662 31,000  Level FlightAware
11:35PM 49.9790 -53.4900 64° Northeast 574 661 31,000  Level FlightAware
11:35PM 50.0190 -53.3650 63° Northeast 572 658 31,000  Level FlightAware
11:36PM 50.0600 -53.2320 64° Northeast 570 656 31,000  Level FlightAware
11:37PM 50.1010 -53.1030 64° Northeast 570 656 31,000  Level FlightAware
11:37PM 50.1450 -52.9590 64° Northeast 568 654 31,000  Level FlightAware
11:38PM 50.1890 -52.8110 65° Northeast 567 652 31,000  Level FlightAware
11:38PM 50.2310 -52.6750 64° Northeast 565 650 31,000  Level FlightAware
11:39PM 50.2620 -52.5760 64° Northeast 565 650 31,000  Level FlightAware
11:40PM 50.2990 -52.4540 65° Northeast 564 649 31,000 660 Level FlightAware
11:40PM 50.3610 -52.2430 65° Northeast 545 627 32,000 840 Climbing FlightAware
11:43PM 50.5400 -51.6360 65° Northeast 573 659 34,000 600 Climbing FlightAware
11:44PM 50.5790 -51.5040 65° Northeast 572 658 34,000  Level FlightAware
11:44PM 50.6140 -51.3850 65° Northeast 572 658 34,000  Level FlightAware
11:45PM 50.6490 -51.2660 65° Northeast 572 658 34,000  Level FlightAware
11:46PM 50.6840 -51.1500 64° Northeast 572 658 34,000  Level FlightAware
11:46PM 50.7190 -51.0310 65° Northeast 572 658 34,000  Level FlightAware
11:47PM 50.7540 -50.9120 65° Northeast 572 658 34,000  Level FlightAware
11:47PM 50.7880 -50.7960 65° Northeast 572 658 34,000  Level FlightAware
11:48PM 50.8220 -50.6800 65° Northeast 572 658 34,000  Level FlightAware
11:49PM 50.8560 -50.5640 65° Northeast 572 658 34,000  Level FlightAware
11:49PM 50.8910 -50.4470 65° Northeast 572 658 34,000  Level FlightAware
11:50PM 50.9250 -50.3310 65° Northeast 572 658 34,000  Level FlightAware
11:50PM 50.9590 -50.2150 65° Northeast 572 658 34,000  Level FlightAware
11:51PM 50.9930 -50.0980 65° Northeast 572 658 34,000  Level FlightAware
11:52PM 51.0260 -49.9880 64° Northeast 572 658 34,000  Level FlightAware
11:52PM 51.0600 -49.8710 65° Northeast 572 658 34,000  Level FlightAware
11:53PM 51.0940 -49.7540 65° Northeast 572 658 34,000  Level FlightAware
11:53PM 51.1280 -49.6370 65° Northeast 572 658 34,000  Level FlightAware
12:01AM 51.4565 -48.0588 69° East  Level FlightAware Approximate
12:02AM 51.5065 -47.8402 70° East  Level FlightAware Approximate
12:03AM 51.5560 -47.6211 70° East  Level FlightAware Approximate
12:04AM 51.6052 -47.4015 70° East  Level FlightAware Approximate
12:05AM 51.6539 -47.1814 70° East  Level FlightAware Approximate
12:06AM 51.7022 -46.9608 70° East  Level FlightAware Approximate
12:07AM 51.7501 -46.7398 71° East  Level FlightAware Approximate
12:08AM 51.7976 -46.5184 71° East  Level FlightAware Approximate
12:09AM 51.8449 -46.2965 71° East  Level FlightAware Approximate
12:10AM 51.8924 -46.0746 71° East  Level FlightAware Approximate
12:11AM 51.9395 -45.8522 71° East  Level FlightAware Approximate
12:12AM 51.9862 -45.6294 71° East  Level FlightAware Approximate
12:13AM 52.0325 -45.4061 71° East  Level FlightAware Approximate
12:14AM 52.0784 -45.1823 71° East  Level FlightAware Approximate
12:15AM 52.1238 -44.9581 72° East  Level FlightAware Approximate
12:16AM 52.1688 -44.7334 72° East  Level FlightAware Approximate
12:17AM 52.2134 -44.5083 72° East  Level FlightAware Approximate
12:18AM 52.2576 -44.2827 72° East  Level FlightAware Approximate
12:19AM 52.3013 -44.0566 72° East  Level FlightAware Approximate
12:20AM 52.3446 -43.8302 73° East  Level FlightAware Approximate
12:21AM 52.3874 -43.6032 73° East  Level FlightAware Approximate
12:22AM 52.4299 -43.3759 73° East  Level FlightAware Approximate
12:23AM 52.4718 -43.1481 73° East  Level FlightAware Approximate
12:24AM 52.5134 -42.9199 73° East  Level FlightAware Approximate
12:25AM 52.5545 -42.6912 73° East  Level FlightAware Approximate
12:26AM 52.5952 -42.4621 74° East  Level FlightAware Approximate
12:27AM 52.6354 -42.2326 74° East  Level FlightAware Approximate
12:28AM 52.6752 -42.0027 74° East  Level FlightAware Approximate
12:29AM 52.7145 -41.7724 74° East  Level FlightAware Approximate
12:30AM 52.7534 -41.5416 74° East  Level FlightAware Approximate
12:31AM 52.7918 -41.3104 75° East  Level FlightAware Approximate
12:32AM 52.8298 -41.0788 75° East  Level FlightAware Approximate
12:33AM 52.8673 -40.8469 75° East  Level FlightAware Approximate
12:34AM 52.9044 -40.6145 75° East  Level FlightAware Approximate
12:35AM 52.9411 -40.3817 75° East  Level FlightAware Approximate
12:36AM 52.9772 -40.1486 75° East  Level FlightAware Approximate
12:37AM 53.0125 -39.9139 76° East  Level FlightAware Approximate
12:38AM 53.0461 -39.6784 77° East  Level FlightAware Approximate
12:39AM 53.0794 -39.4426 77° East  Level FlightAware Approximate
12:40AM 53.1121 -39.2063 77° East  Level FlightAware Approximate
12:41AM 53.1444 -38.9698 77° East  Level FlightAware Approximate
12:42AM 53.1762 -38.7328 77° East  Level FlightAware Approximate
12:43AM 53.2076 -38.4956 77° East  Level FlightAware Approximate
12:44AM 53.2384 -38.2579 78° East  Level FlightAware Approximate
12:45AM 53.2688 -38.0200 78° East  Level FlightAware Approximate
12:46AM 53.2988 -37.7817 78° East  Level FlightAware Approximate
12:47AM 53.3282 -37.5430 78° East  Level FlightAware Approximate
12:48AM 53.3572 -37.3041 78° East  Level FlightAware Approximate
12:49AM 53.3857 -37.0648 79° East  Level FlightAware Approximate
12:50AM 53.4137 -36.8252 79° East  Level FlightAware Approximate
12:51AM 53.4412 -36.5853 79° East  Level FlightAware Approximate
12:52AM 53.4683 -36.3451 79° East  Level FlightAware Approximate
12:53AM 53.4949 -36.1046 79° East  Level FlightAware Approximate
12:54AM 53.5210 -35.8637 80° East  Level FlightAware Approximate
12:55AM 53.5466 -35.6226 80° East  Level FlightAware Approximate
12:56AM 53.5717 -35.3812 80° East  Level FlightAware Approximate
12:57AM 53.5963 -35.1395 80° East  Level FlightAware Approximate
12:58AM 53.6204 -34.8976 80° East  Level FlightAware Approximate
12:59AM 53.6441 -34.6553 81° East  Level FlightAware Approximate
01:00AM 53.6673 -34.4128 81° East  Level FlightAware Approximate
01:01AM 53.6899 -34.1701 81° East  Level FlightAware Approximate
01:02AM 53.7121 -33.9270 81° East  Level FlightAware Approximate
01:03AM 53.7338 -33.6837 81° East  Level FlightAware Approximate
01:04AM 53.7550 -33.4402 82° East  Level FlightAware Approximate
01:05AM 53.7757 -33.1964 82° East  Level FlightAware Approximate
01:06AM 53.7959 -32.9524 82° East  Level FlightAware Approximate
01:07AM 53.8157 -32.7081 82° East  Level FlightAware Approximate
01:08AM 53.8349 -32.4637 82° East  Level FlightAware Approximate
01:09AM 53.8536 -32.2190 83° East  Level FlightAware Approximate
01:10AM 53.8718 -31.9741 83° East  Level FlightAware Approximate
01:11AM 53.8895 -31.7289 83° East  Level FlightAware Approximate
01:12AM 53.9067 -31.4836 83° East  Level FlightAware Approximate
01:13AM 53.9235 -31.2372 83° East  Level FlightAware Approximate
01:14AM 53.9398 -30.9907 84° East  Level FlightAware Approximate
01:15AM 53.9556 -30.7439 84° East  Level FlightAware Approximate
01:16AM 53.9709 -30.4969 84° East  Level FlightAware Approximate
01:17AM 53.9856 -30.2498 84° East  Level FlightAware Approximate
01:18AM 53.9997 -30.0046 84° East  Level FlightAware Approximate
01:19AM 54.0098 -29.7588 86° East  Level FlightAware Approximate
01:20AM 54.0192 -29.5129 86° East  Level FlightAware Approximate
01:21AM 54.0281 -29.2668 86° East  Level FlightAware Approximate
01:22AM 54.0365 -29.0207 87° East  Level FlightAware Approximate
01:23AM 54.0445 -28.7744 87° East  Level FlightAware Approximate
01:24AM 54.0519 -28.5280 87° East  Level FlightAware Approximate
01:25AM 54.0588 -28.2816 87° East  Level FlightAware Approximate
01:26AM 54.0653 -28.0351 87° East  Level FlightAware Approximate
01:27AM 54.0712 -27.7885 88° East  Level FlightAware Approximate
01:28AM 54.0766 -27.5418 88° East  Level FlightAware Approximate
01:29AM 54.0815 -27.2951 88° East  Level FlightAware Approximate
01:30AM 54.0859 -27.0483 88° East  Level FlightAware Approximate
01:31AM 54.0898 -26.8015 88° East  Level FlightAware Approximate
01:32AM 54.0932 -26.5547 89° East  Level FlightAware Approximate
01:33AM 54.0961 -26.3078 89° East  Level FlightAware Approximate
01:34AM 54.0984 -26.0608 89° East  Level FlightAware Approximate
01:35AM 54.1003 -25.8139 89° East  Level FlightAware Approximate
01:36AM 54.1017 -25.5669 89° East  Level FlightAware Approximate
01:37AM 54.1025 -25.3199 90° East  Level FlightAware Approximate
01:38AM 54.1029 -25.0729 90° East  Level FlightAware Approximate
01:39AM 54.1027 -24.8259 90° East  Level FlightAware Approximate
01:40AM 54.1021 -24.5789 90° East  Level FlightAware Approximate
01:41AM 54.1009 -24.3319 90° East  Level FlightAware Approximate
01:42AM 54.0993 -24.0849 91° East  Level FlightAware Approximate
01:43AM 54.0971 -23.8380 91° East  Level FlightAware Approximate
01:44AM 54.0944 -23.5911 91° East  Level FlightAware Approximate
01:45AM 54.0912 -23.3442 91° East  Level FlightAware Approximate
01:46AM 54.0875 -23.0973 91° East  Level FlightAware Approximate
01:47AM 54.0833 -22.8505 92° East  Level FlightAware Approximate
01:48AM 54.0788 -22.6038 92° East  Level FlightAware Approximate
01:49AM 54.0738 -22.3571 92° East  Level FlightAware Approximate
01:50AM 54.0682 -22.1105 92° East  Level FlightAware Approximate
01:51AM 54.0622 -21.8639 92° East  Level FlightAware Approximate
01:52AM 54.0556 -21.6174 92° East  Level FlightAware Approximate
01:53AM 54.0485 -21.3710 93° East  Level FlightAware Approximate
01:54AM 54.0409 -21.1226 93° East  Level FlightAware Approximate
01:55AM 54.0328 -20.8742 93° East  Level FlightAware Approximate
01:56AM 54.0241 -20.6259 93° East  Level FlightAware Approximate
01:57AM 54.0150 -20.3791 93° East  Level FlightAware Approximate
01:58AM 54.0054 -20.1323 94° East  Level FlightAware Approximate
01:59AM 53.9933 -19.8860 96° East  Level FlightAware Approximate
02:00AM 53.9784 -19.6401 96° East  Level FlightAware Approximate
02:01AM 53.9630 -19.3944 96° East  Level FlightAware Approximate
02:02AM 53.9471 -19.1489 96° East  Level FlightAware Approximate
02:03AM 53.9307 -18.9036 96° East  Level FlightAware Approximate
02:04AM 53.9138 -18.6585 97° East  Level FlightAware Approximate
02:05AM 53.8964 -18.4136 97° East  Level FlightAware Approximate
02:06AM 53.8785 -18.1689 97° East  Level FlightAware Approximate
02:07AM 53.8601 -17.9244 97° East  Level FlightAware Approximate
02:08AM 53.8412 -17.6801 97° East  Level FlightAware Approximate
02:09AM 53.8218 -17.4361 98° East  Level FlightAware Approximate
02:10AM 53.8019 -17.1923 98° East  Level FlightAware Approximate
02:11AM 53.7816 -16.9487 98° East  Level FlightAware Approximate
02:12AM 53.7607 -16.7054 98° East  Level FlightAware Approximate
02:13AM 53.7393 -16.4622 98° East  Level FlightAware Approximate
02:14AM 53.7174 -16.2186 99° East  Level FlightAware Approximate
02:15AM 53.6950 -15.9751 99° East  Level FlightAware Approximate
02:15AM 53.8890 -14.2930 99° East 535 616 35,000  Level FlightAware
02:15AM 53.8700 -14.1710 105° East 533 613 35,000  Level FlightAware
02:16AM 53.8470 -14.0260 105° East 533 613 35,000  Level FlightAware
02:16AM 53.8250 -13.8890 105° East 532 612 35,000  Level FlightAware
02:17AM 53.8020 -13.7440 105° East 532 612 35,000  Level FlightAware
02:18AM 53.7790 -13.6030 105° East 534 615 35,000  Level FlightAware
02:18AM 53.7520 -13.4420 106° East 534 615 35,000  Level FlightAware
02:19AM 53.7260 -13.2820 105° East 535 616 35,000  Level FlightAware
02:19AM 53.7020 -13.1420 106° East 535 616 35,000  Level FlightAware
02:20AM 53.6780 -13.0060 107° East 535 616 35,000  Level FlightAware
02:21AM 53.6550 -12.8700 106° East 535 616 35,000  Level FlightAware
02:21AM 53.6260 -12.7000 106° East 535 616 35,000  Level FlightAware
02:22AM 53.5990 -12.5460 106° East 533 613 35,000  Level FlightAware
02:22AM 53.5780 -12.4300 107° East 533 613 35,000  Level FlightAware
02:23AM 53.5500 -12.2670 106° East 533 613 35,000  Level FlightAware
02:24AM 53.5260 -12.1320 107° East 533 613 35,000  Level FlightAware
02:24AM 53.5030 -12.0080 107° East 533 613 35,000  Level FlightAware
02:25AM 53.4790 -11.8730 107° East 533 613 35,000  Level FlightAware
02:25AM 53.4490 -11.7110 107° East 533 613 35,000  Level FlightAware
02:26AM 53.4270 -11.5880 107° East 533 613 35,000  Level FlightAware
02:27AM 53.3980 -11.4340 107° East 535 616 35,000  Level FlightAware
02:27AM 53.3720 -11.2920 107° East 536 617 35,000  Level FlightAware
02:28AM 53.3500 -11.1770 108° East 536 617 35,000  Level FlightAware
02:28AM 53.3230 -11.0350 108° East 538 619 35,000  Level FlightAware
02:29AM 53.2940 -10.8840 108° East 539 620 35,000  Level FlightAware
02:29AM 53.2710 -10.7650 108° East 539 620 35,000  Level FlightAware
02:30AM 53.2440 -10.6230 108° East 539 620 35,000  Level FlightAware
02:31AM 53.2120 -10.4600 108° East 541 623 35,000  Level FlightAware
02:31AM 53.1890 -10.3440 108° East 541 623 35,000  Level FlightAware
02:32AM 53.1610 -10.2010 108° East 543 625 35,000  Level FlightAware
02:32AM 53.1300 -10.0460 108° East 544 626 35,000  Level FlightAware
02:33AM 53.1010 -9.9020 108° East 544 626 35,000  Level FlightAware
02:33AM 53.0780 -9.7870 108° East 548 631 35,000  Level FlightAware
02:34AM 53.0490 -9.6470 109° East 549 632 35,000  Level FlightAware
02:35AM 53.0170 -9.4880 108° East 549 632 35,000  Level FlightAware
02:35AM 52.9880 -9.3480 109° East 549 632 35,000  Level FlightAware
02:36AM 52.9630 -9.2290 109° East 550 633 35,000  Level FlightAware
02:36AM 52.9290 -9.0690 109° East 552 635 35,000  Level FlightAware
02:37AM 52.9000 -8.9300 109° East 550 633 35,000  Level FlightAware
02:38AM 52.8750 -8.8100 109° East 550 633 35,000  Level FlightAware
02:38AM 52.8400 -8.6510 110° East 552 635 35,000  Level FlightAware
02:39AM 52.8100 -8.5110 109° East 552 635 35,000  Level FlightAware
02:39AM 52.7840 -8.3880 109° East 554 638 35,000  Level FlightAware
02:40AM 52.7501 -8.2350 109° East 490 564 35,000  Level FlightAware UK
02:40AM 52.7490 -8.2320 109° East 554 638 35,000  Level FlightAware
02:41AM 52.7190 -8.0920 109° East 554 638 35,000  Level FlightAware
02:41AM 52.6930 -7.9770 110° East 557 641 35,000  Level FlightAware
02:42AM 52.6610 -7.8290 110° East 558 642 35,000  Level FlightAware
02:42AM 52.6260 -7.6740 110° East 559 643 35,000  Level FlightAware
02:43AM 52.5950 -7.5390 111° Southeast 560 644 35,000  Level FlightAware
02:43AM 52.5670 -7.4150 111° Southeast 561 646 35,000  Level FlightAware
02:43AM 52.5635 -7.3972 111° Southeast 490 564 35,000  Level FlightAware UK
02:44AM 52.5360 -7.2774 111° Southeast 492 566 35,000  Level FlightAware UK
02:44AM 52.5340 -7.2710 111° Southeast 563 648 35,000  Level FlightAware
02:45AM 52.4980 -7.1160 111° Southeast 560 644 35,000  Level FlightAware
02:45AM 52.4650 -6.9760 111° Southeast 560 644 35,000  Level FlightAware
02:46AM 52.4370 -6.8570 111° Southeast 559 643 35,000  Level FlightAware
02:46AM 52.3990 -6.6900 111° Southeast 560 644 35,000  Level FlightAware
02:46AM 52.3965 -6.6796 111° Southeast 500 575 35,000  Level FlightAware UK
02:47AM 52.3685 -6.5613 111° Southeast 496 571 35,000  Level FlightAware UK
02:47AM 52.3640 -6.5410 111° Southeast 558 642 35,000  Level FlightAware
02:48AM 52.3290 -6.3990 112° Southeast 559 643 35,000  Level FlightAware
02:48AM 52.2950 -6.2540 111° Southeast 558 642 35,000  Level FlightAware
02:49AM 52.2650 -6.1330 112° Southeast 558 642 35,000  Level FlightAware
02:49AM 52.2330 -6.0000 111° Southeast 560 644 35,000  Level FlightAware
02:50AM 52.2015 -5.8536 111° Southeast 494 568 35,000  Level FlightAware UK
02:50AM 52.2010 -5.8490 111° Southeast 558 642 35,000  Level FlightAware
02:51AM 52.1770 -5.7110 106° East 557 641 35,000  Level FlightAware
02:51AM 52.1560 -5.5650 103° East 556 640 35,000  Level FlightAware
02:52AM 52.1370 -5.4310 103° East 555 639 35,000  Level FlightAware
02:52AM 52.1140 -5.2640 103° East 554 638 35,000  Level FlightAware
02:53AM 52.0970 -5.1430 103° East 551 634 35,000  Level FlightAware
02:53AM 52.0945 -5.1229 103° East 496 571 35,000  Level FlightAware UK
02:53AM 52.0779 -5.0015 103° East 496 571 35,000  Level FlightAware UK
02:54AM 52.0770 -4.9940 103° East 551 634 35,000  Level FlightAware
02:54AM 52.0570 -4.8480 103° East 552 635 35,000  Level FlightAware
02:55AM 52.0370 -4.7030 103° East 553 636 35,000  Level FlightAware
02:55AM 52.0190 -4.5730 103° East 553 636 35,000  Level FlightAware
02:56AM 51.9980 -4.4270 103° East 555 639 35,000  Level FlightAware
02:56AM 51.9770 -4.2820 103° East 555 639 35,000  Level FlightAware
02:57AM 51.9584 -4.1511 103° East 494 568 35,000  Level FlightAware UK
02:57AM 51.9580 -4.1480 103° East 556 640 35,000  Level FlightAware
02:58AM 51.9353 -3.9941 103° East 558 642 35,000  Level FlightAware ADS-B
02:58AM 51.9139 -3.8480 103° East 557 641 35,000  Level FlightAware ADS-B
02:59AM 51.8950 -3.7230 104° East 556 640 35,000  Level FlightAware
02:59AM 51.8750 -3.5860 103° East 555 639 35,000  Level FlightAware
03:00AM 51.8530 -3.4410 104° East 554 638 35,000  Level FlightAware
03:01AM 51.8310 -3.2960 104° East 556 640 35,000  Level FlightAware
03:01AM 51.8100 -3.1632 104° East 556 640 35,000  Level FlightAware ADS-B
03:02AM 51.7902 -3.0346 104° East 555 639 35,000  Level FlightAware ADS-B
03:02AM 51.7637 -2.8655 104° East 557 641 35,000  Level FlightAware ADS-B
03:03AM 51.7432 -2.7367 104° East 557 641 35,000  Level FlightAware ADS-B
03:03AM 51.7239 -2.6163 104° East 558 642 35,000  Level FlightAware ADS-B
03:04AM 51.7038 -2.4881 104° East 558 642 35,000  Level FlightAware ADS-B
03:04AM 51.6832 -2.3636 105° East 557 641 35,000  Level FlightAware ADS-B
03:05AM 51.6634 -2.2394 104° East 556 640 35,000  Level FlightAware ADS-B
03:05AM 51.6431 -2.1161 105° East 554 638 35,000  Level FlightAware ADS-B
03:06AM 51.6229 -1.9931 105° East 553 636 35,000  Level FlightAware ADS-B
03:06AM 51.6023 -1.8706 105° East 552 635 35,000  Level FlightAware ADS-B
03:07AM 51.5823 -1.7517 105° East 551 634 35,000  Level FlightAware ADS-B
03:07AM 51.5616 -1.6299 105° East 550 633 35,000  Level FlightAware ADS-B
03:08AM 51.5408 -1.5076 105° East 550 633 35,000  Level FlightAware ADS-B
03:08AM 51.5203 -1.3858 105° East 550 633 35,000  Level FlightAware ADS-B
03:09AM 51.5000 -1.2640 105° East 549 632 35,000  Level FlightAware ADS-B
03:10AM 51.4832 -1.1452 103° East 548 631 35,000  Level FlightAware ADS-B
03:10AM 51.4701 -1.0214 100° East 546 628 35,000  Level FlightAware ADS-B
03:11AM 51.4578 -0.8891 98° East 551 634 35,000  Level FlightAware ADS-B
03:11AM 51.4459 -0.7638 99° East 553 636 35,000  Level FlightAware ADS-B
03:12AM 51.4345 -0.6344 98° East 552 635 35,000  Level FlightAware ADS-B
03:12AM 51.4239 -0.5092 98° East 552 635 35,000  Level FlightAware ADS-B
03:13AM 51.4129 -0.3842 98° East 553 636 35,000  Level FlightAware ADS-B
03:13AM 51.4016 -0.2587 98° East 554 638 35,000  Level FlightAware ADS-B
03:14AM 51.3895 -0.1331 99° East 554 638 35,000  Level FlightAware ADS-B
03:14AM 51.3780 -0.0120 99° East 553 636 35,000  Level FlightAware ADS-B
03:15AM 51.3661 0.1130 99° East 553 636 35,000  Level FlightAware ADS-B
03:15AM 51.3541 0.2380 99° East 553 636 35,000  Level FlightAware ADS-B
03:16AM 51.3395 0.3874 99° East 554 638 35,000  Level FlightAware ADS-B
03:16AM 51.3275 0.5082 99° East 554 638 35,000  Level FlightAware ADS-B
03:17AM 51.3151 0.6331 99° East 554 638 35,000  Level FlightAware ADS-B
03:17AM 51.3027 0.7542 99° East 554 638 35,000  Level FlightAware ADS-B
03:18AM 51.2900 0.8792 99° East 553 636 35,000  Level FlightAware ADS-B
03:18AM 51.2767 1.0078 99° East 553 636 35,000  Level FlightAware ADS-B
03:19AM 51.2640 1.1280 100° East 553 636 35,000  Level FlightAware
03:19AM 51.2580 1.1887 99° East 553 636 35,000  Level FlightAware ADS-B
03:20AM 51.2411 1.3514 99° East 510 587 35,000  Level FlightAware UK
03:20AM 51.2350 1.4130 99° East 549 632 35,000  Level FlightAware
03:21AM 51.2210 1.5400 100° East 549 632 35,000  Level FlightAware
03:21AM 51.2020 1.6870 102° East 548 631 35,000  Level FlightAware
03:22AM 51.1810 1.8200 104° East 548 631 35,000  Level FlightAware
03:22AM 51.1570 1.9710 104° East 547 629 35,000  Level FlightAware
03:23AM 51.1370 2.0924 105° East 548 631 35,000  Level FlightAware ADS-B
03:24AM 51.1160 2.2290 104° East 547 629 35,000  Level FlightAware
03:24AM 51.0940 2.3650 104° East 547 629 35,000  Level FlightAware
03:25AM 51.0750 2.4940 103° East 546 628 35,000  Level FlightAware
03:25AM 51.0520 2.6380 104° East 545 627 35,000  Level FlightAware
03:26AM 51.0318 2.7630 104° East 506 582 35,000  Level FlightAware UK
03:26AM 51.0240 2.8080 104° East 544 626 35,000  Level FlightAware
03:27AM 51.0000 2.9460 105° East 543 625 35,000  Level FlightAware
03:27AM 50.9780 3.0760 105° East 542 624 35,000  Level FlightAware
03:27AM 50.9777 3.0859 105° East 504 580 35,000  Level FlightAware UK
03:28AM 50.9560 3.2070 105° East 541 623 35,000  Level FlightAware
03:28AM 50.9539 3.2243 105° East 506 582 35,000  Level FlightAware UK
03:28AM 50.9330 3.3440 105° East 541 623 35,000  Level FlightAware
03:29AM 50.9120 3.4630 106° East 542 624 35,000  Level FlightAware
03:30AM 50.8870 3.6080 105° East 542 624 35,000  Level FlightAware
03:30AM 50.8600 3.7610 106° East 542 624 35,000  Level FlightAware
03:31AM 50.8410 3.8680 106° East 543 625 35,000  Level FlightAware
03:31AM 50.8160 4.0090 106° East 542 624 35,000  Level FlightAware
03:32AM 50.7920 4.1410 106° East 539 620 35,000  Level FlightAware
03:32AM 50.7680 4.2770 106° East 538 619 35,000  Level FlightAware
03:33AM 50.7440 4.4090 106° East 536 617 35,000  Level FlightAware
03:34AM 50.7200 4.5410 106° East 536 617 35,000  Level FlightAware
03:34AM 50.6950 4.6750 106° East 534 615 35,000  Level FlightAware
03:35AM 50.6670 4.8200 107° East 532 612 35,000  Level FlightAware
03:35AM 50.6310 4.9430 115° Southeast 532 612 35,000  Level FlightAware
03:36AM 50.5850 5.0570 122° Southeast 530 610 35,000  Level FlightAware
03:37AM 50.5350 5.1710 125° Southeast 528 608 35,000  Level FlightAware
03:37AM 50.4880 5.2820 124° Southeast 526 605 35,000  Level FlightAware
03:38AM 50.4370 5.3980 125° Southeast 525 604 35,000  Level FlightAware
03:38AM 50.3920 5.4990 125° Southeast 525 604 35,000  Level FlightAware
03:39AM 50.3410 5.6140 125° Southeast 526 605 35,000  Level FlightAware
03:40AM 50.2910 5.7300 124° Southeast 526 605 35,000  Level FlightAware
03:40AM 50.2470 5.8300 125° Southeast 525 604 35,000  Level FlightAware
03:41AM 50.1980 5.9390 125° Southeast 525 604 35,000  Level FlightAware
03:41AM 50.1520 6.0410 125° Southeast 524 603 35,000  Level FlightAware
03:42AM 50.1060 6.1430 125° Southeast 522 601 35,000  Level FlightAware
03:42AM 50.0530 6.2600 125° Southeast 522 601 35,000  Level FlightAware
03:43AM 50.0010 6.3760 125° Southeast 521 600 35,000  Level FlightAware
03:44AM 49.9540 6.4770 126° Southeast 521 600 35,000  Level FlightAware
03:44AM 49.9090 6.5770 125° Southeast 520 598 35,000  Level FlightAware
03:45AM 49.8550 6.6960 125° Southeast 519 597 35,000  Level FlightAware
03:45AM 49.8080 6.7980 126° Southeast 518 596 35,000  Level FlightAware
03:46AM 49.7610 6.8980 126° Southeast 517 595 35,000  Level FlightAware
03:47AM 49.7140 7.0000 125° Southeast 518 596 35,000  Level FlightAware
03:47AM 49.6580 7.1200 126° Southeast 518 596 35,000  Level FlightAware
03:48AM 49.6140 7.2130 126° Southeast 519 597 35,000  Level FlightAware
03:48AM 49.5620 7.3240 126° Southeast 519 597 35,000  Level FlightAware
03:49AM 49.5110 7.4340 126° Southeast 521 600 35,000  Level FlightAware
03:50AM 49.4600 7.5420 126° Southeast 522 601 35,000  Level FlightAware
03:50AM 49.4120 7.6350 128° Southeast 520 598 35,000  Level FlightAware
03:51AM 49.3560 7.7320 132° Southeast 520 598 35,000  Level FlightAware
03:51AM 49.3050 7.8150 133° Southeast 520 598 35,000  Level FlightAware
03:52AM 49.2350 7.9310 133° Southeast 522 601 35,000  Level FlightAware
03:52AM 49.1850 8.0110 134° Southeast 522 601 35,000  Level FlightAware
03:53AM 49.1240 8.1080 134° Southeast 524 603 35,000  Level FlightAware
03:54AM 49.0650 8.2040 133° Southeast 525 604 35,000  Level FlightAware
03:54AM 49.0060 8.2970 134° Southeast 524 603 35,000  Level FlightAware
03:55AM 48.9500 8.3850 134° Southeast 523 602 35,000  Level FlightAware
03:55AM 48.8850 8.4880 134° Southeast 521 600 35,000  Level FlightAware
03:56AM 48.8340 8.5670 134° Southeast 521 600 35,000  Level FlightAware
03:56AM 48.7720 8.6640 134° Southeast 523 602 35,000  Level FlightAware
03:57AM 48.7230 8.7400 134° Southeast 521 600 35,000  Level FlightAware
03:58AM 48.6560 8.8450 134° Southeast 522 601 35,000  Level FlightAware
03:58AM 48.5990 8.9340 134° Southeast 521 600 35,000  Level FlightAware
03:59AM 48.5410 9.0250 134° Southeast 519 597 35,000  Level FlightAware
03:59AM 48.4830 9.1170 134° Southeast 517 595 35,000  Level FlightAware
04:00AM 48.4230 9.2110 134° Southeast 514 592 35,000  Level FlightAware
04:01AM 48.3650 9.3040 133° Southeast 513 590 35,000  Level FlightAware
04:01AM 48.3060 9.3960 134° Southeast 510 587 35,000  Level FlightAware
04:02AM 48.2580 9.4740 133° Southeast 509 586 35,000  Level FlightAware
04:02AM 48.1960 9.5740 133° Southeast 508 585 35,000  Level FlightAware
04:03AM 48.1420 9.6580 134° Southeast 508 585 35,000  Level FlightAware
04:03AM 48.0880 9.7460 133° Southeast 508 585 35,000  Level FlightAware
04:04AM 48.0290 9.8380 134° Southeast 509 586 35,000  Level FlightAware
04:05AM 47.9700 9.9320 133° Southeast 512 589 35,000  Level FlightAware
04:05AM 47.9160 10.0170 133° Southeast 514 592 35,000  Level FlightAware
04:06AM 47.8630 10.0990 134° Southeast 515 593 35,000  Level FlightAware
04:06AM 47.8050 10.1890 134° Southeast 517 595 35,000  Level FlightAware
04:07AM 47.7310 10.3050 133° Southeast 517 595 35,000  Level FlightAware
04:08AM 47.6690 10.4000 134° Southeast 516 594 35,000  Level FlightAware
04:08AM 47.6060 10.4960 134° Southeast 451 519 35,000  Level FlightAware
04:09AM 47.5490 10.5760 137° Southeast 507 583 35,000  Level FlightAware
04:10AM 47.4760 10.6760 137° Southeast 507 583 35,000  Level FlightAware
04:10AM 47.4190 10.7540 137° Southeast 508 585 35,000  Level FlightAware
04:11AM 47.3440 10.8530 138° Southeast 508 585 35,000  Level FlightAware
04:11AM 47.2840 10.9320 138° Southeast 508 585 35,000  Level FlightAware
04:12AM 47.2200 11.0160 138° Southeast 504 580 35,000  Level FlightAware
04:13AM 47.1610 11.0950 138° Southeast 501 577 35,000  Level FlightAware
04:13AM 47.0980 11.1770 138° Southeast 499 574 35,000  Level FlightAware
04:14AM 47.0380 11.2570 138° Southeast 496 571 35,000  Level FlightAware
04:14AM 46.9780 11.3340 139° Southeast 500 575 35,000  Level FlightAware
04:15AM 46.9180 11.4120 138° Southeast 498 573 35,000  Level FlightAware
04:16AM 46.8560 11.4920 139° Southeast 496 571 35,000  Level FlightAware
04:16AM 46.8040 11.5610 138° Southeast 495 570 35,000  Level FlightAware
04:17AM 46.7390 11.6460 138° Southeast 495 570 35,000  Level FlightAware
04:17AM 46.6760 11.7250 139° Southeast 496 571 35,000  Level FlightAware
04:18AM 46.6160 11.8030 138° Southeast 498 573 35,000  Level FlightAware
04:19AM 46.5470 11.8910 139° Southeast 493 567 35,000  Level FlightAware
04:19AM 46.4880 11.9660 139° Southeast 495 570 35,000  Level FlightAware
04:20AM 46.4180 12.0550 139° Southeast 497 572 35,000  Level FlightAware
04:20AM 46.3460 12.1460 139° Southeast 499 574 35,000  Level FlightAware
04:21AM 46.2880 12.2190 139° Southeast 500 575 35,000  Level FlightAware
04:22AM 46.2220 12.3020 139° Southeast 499 574 35,000  Level FlightAware
04:22AM 46.1690 12.3680 139° Southeast 499 574 35,000  Level FlightAware
04:23AM 46.0980 12.4560 139° Southeast 500 575 35,000  Level FlightAware
04:23AM 46.0380 12.5330 138° Southeast 507 583 35,000  Level FlightAware
04:24AM 45.9750 12.6110 139° Southeast 508 585 35,000  Level FlightAware
04:25AM 45.9040 12.6990 139° Southeast 509 586 35,000  Level FlightAware
04:25AM 45.8430 12.7740 139° Southeast 508 585 35,000  Level FlightAware
04:26AM 45.7790 12.8530 139° Southeast 507 583 35,000  Level FlightAware
04:26AM 45.7190 12.9250 140° Southeast 509 586 35,000  Level FlightAware
04:27AM 45.6520 13.0080 139° Southeast 512 589 35,000  Level FlightAware
04:28AM 45.5890 13.0830 140° Southeast 508 585 35,000  Level FlightAware
04:28AM 45.5250 13.1630 139° Southeast 509 586 35,000  Level FlightAware
04:29AM 45.4630 13.2370 140° Southeast 510 587 35,000  Level FlightAware
04:29AM 45.3990 13.3140 140° Southeast 509 586 35,000  Level FlightAware
04:30AM 45.3350 13.3910 140° Southeast 507 583 35,000  Level FlightAware
04:30AM 45.2720 13.4660 140° Southeast 509 586 35,000  Level FlightAware
04:31AM 45.2100 13.5420 139° Southeast 508 585 35,000  Level FlightAware
04:32AM 45.1480 13.6190 139° Southeast 513 590 35,000  Level FlightAware
04:32AM 45.0990 13.7120 127° Southeast 526 605 35,000 60 Level FlightAware
04:33AM 45.0460 13.8150 126° Southeast 523 602 35,100 600 Climbing FlightAware
04:33AM 44.9880 13.9190 128° Southeast 525 604 35,800 1,020 Climbing FlightAware
04:34AM 44.9270 14.0280 128° Southeast 532 612 36,500 840 Climbing FlightAware
04:35AM 44.8640 14.1530 125° Southeast 534 615 37,000 360 Climbing FlightAware
04:35AM 44.8110 14.2550 126° Southeast 539 620 37,000  Level FlightAware
04:36AM 44.7570 14.3560 127° Southeast 537 618 37,000  Level FlightAware
04:37AM 44.7050 14.4540 127° Southeast 535 616 37,000  Level FlightAware
04:37AM 44.6440 14.5710 126° Southeast 535 616 37,000  Level FlightAware
04:38AM 44.5860 14.6790 127° Southeast 535 616 37,000  Level FlightAware
04:38AM 44.5430 14.7600 127° Southeast 536 617 37,000  Level FlightAware
04:39AM 44.4740 14.8880 127° Southeast 539 620 37,000  Level FlightAware
04:40AM 44.4210 14.9890 126° Southeast 541 623 37,000  Level FlightAware
04:40AM 44.3590 15.1040 127° Southeast 542 624 37,000  Level FlightAware
04:41AM 44.3020 15.2070 128° Southeast 543 625 37,000  Level FlightAware
04:42AM 44.2470 15.3110 126° Southeast 540 621 37,000  Level FlightAware
04:42AM 44.2010 15.3950 127° Southeast 539 620 37,000  Level FlightAware
04:43AM 44.1410 15.5060 127° Southeast 538 619 37,000  Level FlightAware
04:43AM 44.0870 15.6060 127° Southeast 536 617 37,000  Level FlightAware
04:44AM 44.0430 15.6860 127° Southeast 536 617 37,000  Level FlightAware
04:45AM 43.9750 15.8080 128° Southeast 530 610 37,000  Level FlightAware
04:45AM 43.9150 15.9160 128° Southeast 527 606 37,000  Level FlightAware
04:46AM 43.8570 16.0230 127° Southeast 525 604 37,000  Level FlightAware
04:47AM 43.7860 16.1500 128° Southeast 524 603 37,000  Level FlightAware
04:47AM 43.7300 16.2480 128° Southeast 524 603 37,000  Level FlightAware
04:48AM 43.6830 16.3330 127° Southeast 525 604 37,000  Level FlightAware
04:49AM 43.6300 16.4260 128° Southeast 526 605 37,000  Level FlightAware
04:49AM 43.5750 16.5240 128° Southeast 529 609 37,000  Level FlightAware
04:50AM 43.5270 16.6090 128° Southeast 529 609 37,000  Level FlightAware
04:50AM 43.4750 16.7020 128° Southeast 530 610 37,000  Level FlightAware
04:51AM 43.4230 16.7920 128° Southeast 530 610 37,000  Level FlightAware
04:52AM 43.3640 16.8950 128° Southeast 529 609 37,000  Level FlightAware
04:52AM 43.3090 16.9900 128° Southeast 530 610 37,000  Level FlightAware
04:53AM 43.2610 17.0750 128° Southeast 528 608 37,000  Level FlightAware
04:53AM 43.2050 17.1720 128° Southeast 528 608 37,000  Level FlightAware
04:54AM 43.1540 17.2610 128° Southeast 528 608 37,000  Level FlightAware
04:54AM 43.1020 17.3470 130° Southeast 528 608 37,000  Level FlightAware
04:55AM 43.0480 17.4410 128° Southeast 529 609 37,000  Level FlightAware
04:56AM 42.9920 17.5380 128° Southeast 530 610 37,000  Level FlightAware
04:56AM 42.9370 17.6300 129° Southeast 530 610 37,000  Level FlightAware
04:57AM 42.8880 17.7160 128° Southeast 530 610 37,000  Level FlightAware
04:57AM 42.8340 17.8070 129° Southeast 530 610 37,000  Level FlightAware
04:58AM 42.7750 17.9060 129° Southeast 531 611 37,000  Level FlightAware
04:58AM 42.7250 17.9890 129° Southeast 531 611 37,000  Level FlightAware
04:59AM 42.6660 18.0880 129° Southeast 532 612 37,000  Level FlightAware
05:00AM 42.6110 18.1730 131° Southeast 531 611 37,000  Level FlightAware
05:00AM 42.5530 18.2500 136° Southeast 531 611 37,000  Level FlightAware
05:01AM 42.4890 18.3370 135° Southeast 531 611 37,000  Level FlightAware
05:01AM 42.4340 18.4120 135° Southeast 528 608 37,000  Level FlightAware
05:02AM 42.3680 18.5020 135° Southeast 528 608 37,000  Level FlightAware
05:03AM 42.3070 18.5870 134° Southeast 528 608 37,000  Level FlightAware
05:03AM 42.2530 18.6620 134° Southeast 529 609 37,000  Level FlightAware
05:04AM 42.1970 18.7410 134° Southeast 530 610 37,000  Level FlightAware
05:04AM 42.1300 18.8330 134° Southeast 531 611 37,000  Level FlightAware
05:05AM 42.0680 18.9180 134° Southeast 529 609 37,000  Level FlightAware
05:05AM 42.0120 18.9930 135° Southeast 529 609 37,000  Level FlightAware
05:06AM 41.9520 19.0750 135° Southeast 530 610 37,000  Level FlightAware
05:07AM 41.8880 19.1610 135° Southeast 530 610 37,000  Level FlightAware
05:07AM 41.8250 19.2470 134° Southeast 531 611 37,000  Level FlightAware
05:08AM 41.7650 19.3250 136° Southeast 530 610 37,000  Level FlightAware
05:08AM 41.7030 19.3950 140° Southeast 530 610 37,000  Level FlightAware
05:09AM 41.6450 19.4610 140° Southeast 528 608 37,000  Level FlightAware
05:10AM 41.5710 19.5450 140° Southeast 529 609 37,000  Level FlightAware
05:10AM 41.5040 19.6190 140° Southeast 529 609 37,000  Level FlightAware
05:11AM 41.4380 19.6950 139° Southeast 529 609 37,000  Level FlightAware
05:11AM 41.4050 19.7340 138° Southeast 529 609 37,000  Level FlightAware
05:12AM 41.3180 19.8490 135° Southeast 527 606 37,000  Level FlightAware
05:13AM 41.2600 19.9280 134° Southeast 527 606 37,000  Level FlightAware
05:13AM 41.2020 20.0060 135° Southeast 528 608 37,000  Level FlightAware
05:14AM 41.1380 20.0920 135° Southeast 529 609 37,000  Level FlightAware
05:14AM 41.0910 20.1540 135° Southeast 530 610 37,000  Level FlightAware
05:15AM 41.0190 20.2500 135° Southeast 531 611 37,000  Level FlightAware
05:15AM 40.9590 20.3280 136° Southeast 532 612 37,000  Level FlightAware
05:16AM 40.8970 20.4110 135° Southeast 534 615 37,000  Level FlightAware
05:17AM 40.8340 20.4950 135° Southeast 534 615 37,000  Level FlightAware
05:17AM 40.7730 20.5750 135° Southeast 535 616 37,000  Level FlightAware
05:18AM 40.7110 20.6560 135° Southeast 536 617 37,000  Level FlightAware
05:18AM 40.6490 20.7360 136° Southeast 537 618 37,000  Level FlightAware
05:19AM 40.5850 20.8190 135° Southeast 538 619 37,000  Level FlightAware
05:19AM 40.5300 20.8900 136° Southeast 538 619 37,000  Level FlightAware
05:20AM 40.4640 20.9740 136° Southeast 537 618 37,000  Level FlightAware
05:21AM 40.3970 21.0510 139° Southeast 532 612 37,000  Level FlightAware
05:21AM 40.3320 21.1280 138° Southeast 530 610 37,000  Level FlightAware
05:22AM 40.2730 21.1950 139° Southeast 530 610 37,000  Level FlightAware
05:22AM 40.2030 21.2760 139° Southeast 528 608 37,000  Level FlightAware
05:23AM 40.1430 21.3430 140° Southeast 526 605 37,000  Level FlightAware
05:24AM 40.0770 21.4180 139° Southeast 524 603 37,000  Level FlightAware
05:24AM 40.0100 21.4950 139° Southeast 523 602 37,000  Level FlightAware
05:25AM 39.9460 21.5670 139° Southeast 523 602 37,000  Level FlightAware
05:25AM 39.8860 21.6350 139° Southeast 522 601 37,000  Level FlightAware
05:26AM 39.8190 21.7110 139° Southeast 521 600 37,000  Level FlightAware
05:26AM 39.7620 21.7750 139° Southeast 520 598 37,000  Level FlightAware
05:27AM 39.6940 21.8520 139° Southeast 518 596 37,000  Level FlightAware
05:28AM 39.6290 21.9230 140° Southeast 517 595 37,000  Level FlightAware
05:28AM 39.5630 21.9960 140° Southeast 516 594 37,000  Level FlightAware
05:29AM 39.5050 22.0620 139° Southeast 516 594 37,000  Level FlightAware
05:29AM 39.4410 22.1330 139° Southeast 514 592 37,000  Level FlightAware
05:30AM 39.3750 22.2050 140° Southeast 514 592 37,000  Level FlightAware
05:31AM 39.3110 22.2770 139° Southeast 514 592 37,000  Level FlightAware
05:31AM 39.2530 22.3410 139° Southeast 514 592 37,000  Level FlightAware
05:32AM 39.1860 22.4150 139° Southeast 517 595 37,000  Level FlightAware
05:32AM 39.1220 22.4840 140° Southeast 519 597 37,000  Level FlightAware
05:33AM 39.0580 22.5550 139° Southeast 521 600 37,000  Level FlightAware
05:33AM 38.9980 22.6190 140° Southeast 523 602 37,000  Level FlightAware
05:34AM 38.9360 22.6880 139° Southeast 525 604 37,000  Level FlightAware
05:35AM 38.8740 22.7540 140° Southeast 527 606 37,000  Level FlightAware
05:35AM 38.7970 22.8370 140° Southeast 527 606 37,000  Level FlightAware
05:36AM 38.7390 22.9020 139° Southeast 528 608 37,000  Level FlightAware
05:36AM 38.6720 22.9720 141° Southeast 528 608 37,000  Level FlightAware
05:37AM 38.6070 23.0430 140° Southeast 529 609 37,000  Level FlightAware
05:38AM 38.5410 23.1130 140° Southeast 529 609 37,000  Level FlightAware
05:38AM 38.4770 23.1810 140° Southeast 528 608 37,000  Level FlightAware
05:39AM 38.4100 23.2530 140° Southeast 526 605 37,000  Level FlightAware
05:39AM 38.3440 23.3240 140° Southeast 524 603 37,000  Level FlightAware
05:40AM 38.2790 23.3920 141° Southeast 524 603 37,000  Level FlightAware
05:40AM 38.2140 23.4630 139° Southeast 523 602 37,000  Level FlightAware
05:41AM 38.1580 23.5200 141° Southeast 524 603 37,000  Level FlightAware
05:42AM 38.0860 23.5970 140° Southeast 522 601 37,000  Level FlightAware
05:42AM 38.0190 23.6670 141° Southeast 521 600 37,000  Level FlightAware
05:43AM 37.9540 23.7350 140° Southeast 520 598 37,000  Level FlightAware
05:43AM 37.8840 23.8160 138° Southeast 509 586 37,000  Level FlightAware
05:44AM 37.8340 23.8850 133° Southeast 507 583 37,000  Level FlightAware
05:45AM 37.7840 23.9580 131° Southeast 506 582 37,000  Level FlightAware
05:45AM 37.7280 24.0430 130° Southeast 509 586 37,000  Level FlightAware
05:46AM 37.6760 24.1220 130° Southeast 506 582 37,000  Level FlightAware
05:46AM 37.6290 24.2060 125° Southeast 499 574 37,000  Level FlightAware
05:47AM 37.5870 24.2880 123° Southeast 498 573 37,000  Level FlightAware
05:47AM 37.5390 24.3850 122° Southeast 501 577 37,000  Level FlightAware
05:48AM 37.4970 24.4720 121° Southeast 502 578 37,000  Level FlightAware
05:49AM 37.4520 24.5650 121° Southeast 504 580 37,000  Level FlightAware
05:49AM 37.4080 24.6550 122° Southeast 507 583 37,000  Level FlightAware
05:50AM 37.3690 24.7360 121° Southeast 508 585 37,000  Level FlightAware
05:50AM 37.3230 24.8290 122° Southeast 509 586 37,000  Level FlightAware
05:51AM 37.2790 24.9190 122° Southeast 508 585 37,000  Level FlightAware
05:52AM 37.2370 25.0020 122° Southeast 508 585 37,000  Level FlightAware
05:52AM 37.1920 25.0950 121° Southeast 510 587 37,000  Level FlightAware
05:53AM 37.1480 25.1830 122° Southeast 510 587 37,000  Level FlightAware
05:53AM 37.1090 25.2630 121° Southeast 510 587 37,000  Level FlightAware
05:54AM 37.0640 25.3530 122° Southeast 510 587 37,000  Level FlightAware
05:55AM 37.0190 25.4440 122° Southeast 512 589 37,000  Level FlightAware
05:55AM 36.9780 25.5240 123° Southeast 511 588 37,000  Level FlightAware
05:56AM 36.9330 25.6150 122° Southeast 512 589 37,000  Level FlightAware
05:56AM 36.8880 25.7050 122° Southeast 511 588 37,000  Level FlightAware
05:57AM 36.8420 25.7940 123° Southeast 510 587 37,000  Level FlightAware
05:57AM 36.7970 25.8840 122° Southeast 511 588 37,000  Level FlightAware
05:58AM 36.7560 25.9660 122° Southeast 510 587 37,000  Level FlightAware
05:59AM 36.7110 26.0540 123° Southeast 511 588 37,000  Level FlightAware
05:59AM 36.6650 26.1430 123° Southeast 511 588 37,000  Level FlightAware
06:00AM 36.6190 26.2350 122° Southeast 511 588 37,000  Level FlightAware
06:00AM 36.5770 26.3170 123° Southeast 511 588 37,000  Level FlightAware
06:01AM 36.5310 26.4060 123° Southeast 513 590 37,000  Level FlightAware
06:02AM 36.4840 26.4980 122° Southeast 513 590 37,000  Level FlightAware
06:02AM 36.4430 26.5770 123° Southeast 512 589 37,000  Level FlightAware
06:03AM 36.4000 26.6620 122° Southeast 512 589 37,000  Level FlightAware
06:03AM 36.3510 26.7550 123° Southeast 512 589 37,000  Level FlightAware
06:04AM 36.3040 26.8440 123° Southeast 513 590 37,000  Level FlightAware
06:04AM 36.2640 26.9210 123° Southeast 514 592 37,000  Level FlightAware
06:05AM 36.2240 27.0010 122° Southeast 514 592 37,000  Level FlightAware
06:06AM 36.1740 27.0920 124° Southeast 515 593 37,000  Level FlightAware
06:06AM 36.1250 27.1860 123° Southeast 517 595 37,000  Level FlightAware
06:07AM 36.0890 27.2550 123° Southeast 517 595 37,000  Level FlightAware
06:07AM 36.0410 27.3490 122° Southeast 518 596 37,000  Level FlightAware
06:08AM 36.0020 27.4260 122° Southeast 518 596 37,000  Level FlightAware
06:09AM 35.9630 27.5030 122° Southeast 518 596 37,000  Level FlightAware
06:09AM 35.9230 27.5820 122° Southeast 518 596 37,000  Level FlightAware
06:10AM 35.8830 27.6610 122° Southeast 518 596 37,000  Level FlightAware
06:10AM 35.8440 27.7380 122° Southeast 518 596 37,000  Level FlightAware
06:11AM 35.8070 27.8120 122° Southeast 518 596 37,000  Level FlightAware
06:12AM 35.7680 27.8890 122° Southeast 518 596 37,000  Level FlightAware
06:12AM 35.6470 28.0850 127° Southeast 516 594 37,000  Level FlightAware
06:13AM 35.6000 28.1700 124° Southeast 515 593 37,000  Level FlightAware
06:13AM 35.5550 28.2530 124° Southeast 515 593 37,000  Level FlightAware
06:14AM 35.5050 28.3450 124° Southeast 514 592 37,000  Level FlightAware
06:15AM 35.4630 28.4230 123° Southeast 513 590 37,000  Level FlightAware
06:15AM 35.4150 28.5100 124° Southeast 511 588 37,000  Level FlightAware
06:16AM 35.3700 28.5940 123° Southeast 506 582 37,000  Level FlightAware
06:16AM 35.3120 28.6970 125° Southeast 511 588 37,000  Level FlightAware
06:17AM 35.2650 28.7830 124° Southeast 511 588 37,000  Level FlightAware
06:18AM 35.2170 28.8700 124° Southeast 510 587 37,000  Level FlightAware
06:18AM 35.1740 28.9500 123° Southeast 510 587 37,000  Level FlightAware
06:19AM 35.1220 29.0450 124° Southeast 507 583 37,000  Level FlightAware
06:20AM 35.0720 29.1330 125° Southeast 512 589 37,000  Level FlightAware
06:20AM 35.0300 29.2100 124° Southeast 512 589 37,000  Level FlightAware
06:21AM 34.9530 29.3460 125° Southeast 515 593 37,000  Level FlightAware
06:22AM 34.9120 29.4190 124° Southeast 515 593 37,000  Level FlightAware
06:22AM 34.8520 29.5240 125° Southeast 520 598 37,000  Level FlightAware
06:23AM 34.8000 29.6190 124° Southeast 521 600 37,000  Level FlightAware
06:24AM 34.7380 29.7280 125° Southeast 519 597 37,000  Level FlightAware
06:24AM 34.6840 29.8220 125° Southeast 520 598 37,000  Level FlightAware
06:25AM 34.6400 29.9000 124° Southeast 521 600 37,000  Level FlightAware
06:26AM 34.5800 30.0090 124° Southeast 521 600 37,000  Level FlightAware
06:26AM 34.5290 30.1120 121° Southeast 531 611 37,000  Level FlightAware
06:27AM 34.4810 30.2130 120° Southeast 526 605 37,000  Level FlightAware
06:28AM 34.4300 30.3170 121° Southeast 523 602 37,000  Level FlightAware
06:28AM 34.3810 30.4190 120° Southeast 521 600 37,000  Level FlightAware
06:29AM 34.3380 30.5080 120° Southeast 520 598 37,000  Level FlightAware
06:29AM 34.2890 30.6090 120° Southeast 519 597 37,000  Level FlightAware
06:30AM 34.2530 30.6840 120° Southeast 518 596 37,000  Level FlightAware
06:31AM 34.2100 30.7720 121° Southeast 517 595 37,000  Level FlightAware
06:31AM 34.1700 30.8520 121° Southeast 516 594 37,000  Level FlightAware
06:32AM 34.1220 30.9490 121° Southeast 516 594 37,000  Level FlightAware
06:32AM 34.0810 31.0330 120° Southeast 514 592 37,000  Level FlightAware
06:33AM 34.0360 31.1240 121° Southeast 511 588 37,000  Level FlightAware
06:34AM 33.9870 31.2240 121° Southeast 511 588 37,000  Level FlightAware
06:34AM 33.9440 31.3100 121° Southeast 512 589 37,000  Level FlightAware
06:35AM 33.9010 31.3960 121° Southeast 512 589 37,000  Level FlightAware
06:35AM 33.8580 31.4810 121° Southeast 507 583 37,000  Level FlightAware
06:36AM 33.8160 31.5670 120° Southeast 507 583 37,000  Level FlightAware
06:37AM 33.7720 31.6540 121° Southeast 507 583 37,000  Level FlightAware
06:37AM 33.7310 31.7370 121° Southeast 506 582 37,000  Level FlightAware
06:38AM 33.6860 31.8270 121° Southeast 506 582 37,000  Level FlightAware
06:38AM 33.6490 31.8970 122° Southeast 505 581 37,000  Level FlightAware
06:39AM 33.6010 31.9940 121° Southeast 504 580 37,000  Level FlightAware
06:39AM 33.5590 32.0750 122° Southeast 503 579 37,000  Level FlightAware
06:40AM 33.5150 32.1620 121° Southeast 503 579 37,000  Level FlightAware
06:41AM 33.4700 32.2510 121° Southeast 503 579 37,000  Level FlightAware
06:41AM 33.4370 32.3150 122° Southeast 503 579 37,000  Level FlightAware
06:42AM 33.4130 32.3630 121° Southeast 507 583 37,000  Level FlightAware
06:43AM 33.3290 32.5260 122° Southeast 507 583 37,000 -600 Level FlightAware
06:43AM 33.2880 32.6050 122° Southeast 508 585 36,300 -1,920 Descending FlightAware
06:44AM 33.2480 32.6850 121° Southeast 503 579 34,900 -2,400 Descending FlightAware
06:44AM 33.1940 32.7890 122° Southeast 496 571 33,200 -2,340 Descending FlightAware
06:45AM 33.1400 32.8920 122° Southeast 488 562 31,500 -1,620 Descending FlightAware
06:46AM 33.0970 32.9740 122° Southeast 477 549 31,000 -420 Descending FlightAware
06:46AM 33.0500 33.0670 121° Southeast 493 567 31,000  Level FlightAware
06:47AM 33.0110 33.1450 121° Southeast 497 572 31,000 -360 Level FlightAware
06:48AM 32.9640 33.2360 122° Southeast 499 574 30,600 -1,200 Descending FlightAware
06:48AM 32.9080 33.3470 121° Southeast 521 600 29,400 -1,200 Descending FlightAware
06:49AM 32.8570 33.4450 122° Southeast 523 602 29,000 -1,260 Descending FlightAware
06:50AM 32.8090 33.5380 122° Southeast 516 594 27,800 -2,640 Descending FlightAware
06:50AM 32.7640 33.6240 122° Southeast 505 581 25,800 -4,200 Descending FlightAware
06:51AM 32.7250 33.7020 121° Southeast 505 581 23,000 -4,980 Descending FlightAware
06:51AM 32.6800 33.7860 122° Southeast 489 563 20,200 -4,080 Descending FlightAware
06:52AM 32.6400 33.8630 122° Southeast 458 527 18,200 -3,360 Descending FlightAware
06:53AM 32.6010 33.9390 121° Southeast 426 490 16,200 -3,540 Descending FlightAware
06:53AM 32.5670 34.0040 122° Southeast 412 474 14,200 -3,300 Descending FlightAware
06:54AM 32.5330 34.0690 122° Southeast 387 445 12,500 -2,940 Descending FlightAware
06:54AM 32.5000 34.1310 122° Southeast 388 447 10,800 -1,920 Descending FlightAware
06:55AM 32.4590 34.1910 129° Southeast 379 436 10,200 -1,020 Descending FlightAware
06:55AM 32.4380 34.2160 135° Southeast 374 430 9,900 -600 Descending FlightAware
06:56AM 32.3980 34.2640 135° Southeast 354 407 9,700 -780 Descending FlightAware
06:56AM 32.3790 34.2860 136° Southeast 333 383 9,200 -900 Descending FlightAware
06:57AM 32.3520 34.3180 135° Southeast 300 345 9,100 -660 Descending FlightAware
06:57AM 32.3320 34.3400 137° Southeast 292 336 8,700 -1,080 Descending FlightAware
06:57AM 32.3150 34.3600 135° Southeast 288 331 8,400 -900 Descending FlightAware
06:58AM 32.2940 34.3840 136° Southeast 279 321 8,100 -960 Descending FlightAware
06:58AM 32.2700 34.4120 135° Southeast 275 316 7,700 -840 Descending FlightAware
06:58AM 32.2510 34.4350 134° Southeast 276 318 7,400 -900 Descending FlightAware
06:59AM 32.2350 34.4550 133° Southeast 276 318 7,100 -1,020 Descending FlightAware
06:59AM 32.2230 34.4740 127° Southeast 274 315 6,800 -1,020 Descending FlightAware
06:59AM 32.2070 34.5040 122° Southeast 270 311 6,400 -1,080 Descending FlightAware
07:00AM 32.1940 34.5310 120° Southeast 264 304 6,100 -1,020 Descending FlightAware
07:00AM 32.1750 34.5660 123° Southeast 259 298 5,600 -960 Descending FlightAware
07:01AM 32.1630 34.5890 122° Southeast 262 302 5,300 -900 Descending FlightAware
07:01AM 32.1500 34.6150 121° Southeast 266 306 5,000 -300 Descending FlightAware
07:01AM 32.1340 34.6440 123° Southeast 263 303 5,100 120 Climbing FlightAware
07:02AM 32.1190 34.6710 123° Southeast 266 306 5,100  Level FlightAware
07:02AM 32.1050 34.6950 125° Southeast 266 306 5,100  Level FlightAware
07:03AM 32.0830 34.7370 122° Southeast 266 306 5,100  Level FlightAware
07:03AM 32.0680 34.7630 124° Southeast 260 299 5,100 -180 Level FlightAware
07:03AM 32.0550 34.7810 130° Southeast 243 280 5,000 -420 Descending FlightAware
07:04AM 32.0350 34.8030 137° Southeast 232 267 4,800 -420 Descending FlightAware
07:04AM 32.0220 34.8190 134° Southeast 228 262 4,700 -480 Descending FlightAware
07:04AM 32.0030 34.8400 137° Southeast 230 265 4,500 -900 Descending FlightAware
07:05AM 31.9900 34.8550 136° Southeast 228 262 4,100 -1,620 Descending FlightAware
07:05AM 31.9750 34.8780 128° Southeast 227 261 3,400 -1,620 Descending FlightAware
07:05AM 31.9730 34.8860 106° East 227 261 3,300 -1,320 Descending FlightAware
07:05AM 31.9770 34.9120 80° East 216 249 2,800 -1,200 Descending FlightAware
07:06AM 31.9820 34.9340 75° East 209 241 2,500 -1,200 Descending FlightAware
07:06AM 31.9890 34.9520 65° Northeast 196 226 2,100 -1,260 Descending FlightAware
07:06AM 31.9930 34.9560 40° Northeast 191 220 2,000 -960 Descending FlightAware
07:06AM 31.9960 34.9590 40° Northeast 185 213 1,900 -960 Descending FlightAware
07:07AM 32.0060 34.9620 14° North 172 198 1,700 -960 Descending FlightAware
07:07AM 32.0200 34.9580 346° North 167 192 1,400 -900 Descending FlightAware
07:07AM 32.0250 34.9490 303° West 163 188 1,200 -900 Descending FlightAware
07:07AM 32.0240 34.9320 266° West 150 173 900 -840 Descending FlightAware
07:08AM 32.0210 34.9120 260° West 146 168 600 -840 Descending FlightAware
07:08AM 32.0180 34.8960 258° West 146 168 300 -840 Descending FlightAware
07:08AM 32.0160 34.8820 260° West 130 150 -1,020 Descending FlightAware